createdAt,value
2022-10-06T10:36:17.622Z,2.67
2022-10-06T10:39:53.779Z,2.75
2022-10-06T10:43:22.467Z,2.70
2022-10-06T10:46:37.440Z,2.77
2022-10-06T10:49:49.152Z,2.66
2022-10-06T10:52:57.672Z,2.66
2022-10-06T10:56:03.927Z,2.76
2022-10-06T10:59:18.313Z,2.69
2022-10-06T11:02:23.201Z,2.47
2022-10-06T11:05:58.660Z,2.54
2022-10-06T11:09:17.839Z,2.59
2022-10-06T11:12:53.045Z,2.76
2022-10-06T11:16:08.201Z,2.58
2022-10-06T11:19:36.117Z,2.60
2022-10-06T11:23:02.861Z,2.75
2022-10-06T11:26:14.256Z,2.87
2022-10-06T11:29:28.720Z,2.89
2022-10-06T11:32:47.015Z,2.86
2022-10-06T11:35:50.624Z,2.81
2022-10-06T11:39:03.258Z,2.85
2022-10-06T11:42:32.747Z,2.78
2022-10-06T11:45:48.492Z,2.76
2022-10-06T11:48:54.616Z,2.82
2022-10-06T11:52:08.483Z,2.95
2022-10-06T11:55:18.401Z,3.00
2022-10-06T11:58:41.373Z,2.95
2022-10-06T12:01:48.657Z,2.84
2022-10-06T12:05:28.608Z,2.79
2022-10-06T12:08:41.655Z,2.86
2022-10-06T12:11:45.956Z,2.88
2022-10-06T12:18:36.051Z,2.99
2022-10-06T12:21:52.131Z,2.99
2022-10-06T12:25:20.071Z,3.00
2022-10-06T12:28:40.321Z,3.01
2022-10-06T12:31:56.160Z,3.00
2022-10-06T12:35:08.963Z,2.95
2022-10-06T12:38:36.404Z,2.95
2022-10-06T12:41:59.768Z,2.99
2022-10-06T12:45:14.304Z,2.93
2022-10-06T12:48:27.802Z,2.91
2022-10-06T12:51:39.600Z,2.92
2022-10-06T12:55:00.832Z,2.90
2022-10-06T12:58:04.770Z,2.85
2022-10-06T13:01:13.058Z,2.80
2022-10-06T13:04:53.536Z,2.70
2022-10-06T13:08:25.052Z,2.67
2022-10-06T13:11:28.843Z,2.50
2022-10-06T13:14:32.898Z,2.40
2022-10-06T13:17:45.490Z,2.28
2022-10-06T13:20:54.219Z,2.20
2022-10-06T13:23:58.188Z,2.07
2022-10-06T13:27:03.878Z,2.02
2022-10-06T13:30:19.880Z,2.01
2022-10-06T13:33:26.687Z,1.95
2022-10-06T13:36:33.301Z,1.88
2022-10-06T13:39:37.302Z,1.76
2022-10-06T13:42:41.361Z,1.70
2022-10-06T13:45:49.146Z,1.66
2022-10-06T13:49:24.096Z,1.63
2022-10-06T13:52:42.061Z,1.58
2022-10-06T13:55:50.889Z,1.55
2022-10-06T13:58:54.135Z,1.49
2022-10-06T14:01:59.882Z,1.38
2022-10-06T14:05:30.717Z,1.45
2022-10-06T14:08:35.177Z,1.34
2022-10-06T14:11:38.611Z,1.28
2022-10-06T14:14:51.845Z,1.17
2022-10-06T14:18:05.356Z,1.15
2022-10-06T14:21:33.678Z,1.11
2022-10-06T14:24:37.847Z,0.98
2022-10-06T14:27:41.970Z,0.91
2022-10-06T14:30:45.819Z,0.86
2022-10-06T14:33:52.592Z,0.81
2022-10-06T14:36:55.939Z,0.75
2022-10-06T14:39:59.034Z,0.72
2022-10-06T14:43:02.857Z,0.72
2022-10-06T14:46:10.143Z,0.68
2022-10-06T14:49:14.597Z,0.67
2022-10-06T14:52:18.249Z,0.64
2022-10-06T14:55:22.032Z,0.61
2022-10-06T14:58:25.063Z,0.59
2022-10-06T15:01:30.801Z,0.57
2022-10-06T15:04:34.377Z,0.59
2022-10-06T15:07:56.424Z,0.62
2022-10-06T15:10:59.361Z,0.53
2022-10-06T15:14:03.636Z,0.50
2022-10-06T15:17:07.756Z,0.45
2022-10-06T15:20:15.256Z,0.40
2022-10-06T15:23:19.065Z,0.42
2022-10-06T15:26:41.626Z,0.32
2022-10-06T15:29:44.664Z,0.23
2022-10-06T15:32:49.621Z,0.16
2022-10-06T15:36:16.643Z,0.12
2022-10-06T15:39:21.659Z,0.05
2022-10-06T15:42:25.905Z,0.02
2022-10-06T15:45:29.240Z,0.03
2022-10-06T15:48:32.122Z,-0.01
2022-10-06T15:51:43.810Z,0.02
2022-10-06T15:54:48.632Z,0.01
2022-10-06T15:57:53.362Z,-0.03
2022-10-06T16:00:56.409Z,-0.04
2022-10-06T16:04:02.874Z,-0.05
2022-10-06T16:07:06.768Z,-0.10
2022-10-06T16:10:10.773Z,-0.13
2022-10-06T16:13:14.484Z,-0.19
2022-10-06T16:16:17.511Z,-0.23
2022-10-06T16:19:20.859Z,-0.21
2022-10-06T16:22:24.293Z,-0.33
2022-10-06T16:25:27.238Z,-0.42
2022-10-06T16:28:30.202Z,-0.43
2022-10-06T16:31:34.228Z,-0.41
2022-10-06T16:34:37.176Z,-0.68
2022-10-06T16:37:40.051Z,-0.90
2022-10-06T16:40:43.727Z,-0.93
2022-10-06T16:43:49.495Z,-1.16
2022-10-06T16:46:53.677Z,-1.26
2022-10-06T16:49:57.481Z,-1.25
2022-10-06T16:53:00.372Z,-1.17
2022-10-06T16:56:04.623Z,-1.16
2022-10-06T16:59:16.579Z,-1.14
2022-10-06T17:02:20.167Z,-1.22
2022-10-06T17:05:23.873Z,-1.25
2022-10-06T17:08:27.717Z,-1.19
2022-10-06T17:11:30.704Z,-1.16
2022-10-06T17:14:35.606Z,-1.10
2022-10-06T17:17:39.561Z,-1.09
2022-10-06T17:20:42.756Z,-1.05
2022-10-06T17:23:46.771Z,-1.09
2022-10-06T17:26:50.808Z,-1.08
2022-10-06T17:29:54.161Z,-1.03
2022-10-06T17:32:57.876Z,-1.01
2022-10-06T17:36:25.279Z,-1.02
2022-10-06T17:39:29.048Z,-0.98
2022-10-06T17:42:32.525Z,-1.02
2022-10-06T17:45:39.876Z,-0.96
2022-10-06T17:48:46.106Z,-1.01
2022-10-06T17:51:50.963Z,-0.95
2022-10-06T17:54:54.976Z,-0.96
2022-10-06T17:57:59.390Z,-1.03
2022-10-06T18:01:08.467Z,-1.09
2022-10-06T18:04:16.522Z,-1.26
2022-10-06T18:07:20.440Z,-1.34
2022-10-06T18:10:42.007Z,-1.43
2022-10-06T18:13:45.908Z,-1.52
2022-10-06T18:16:56.922Z,-1.60
2022-10-06T18:19:59.980Z,-1.59
2022-10-06T18:23:02.862Z,-1.61
2022-10-06T18:26:07.236Z,-1.44
2022-10-06T18:29:11.949Z,-1.40
2022-10-06T18:33:40.692Z,-1.55
2022-10-06T18:39:01.743Z,-1.81
2022-10-06T18:42:06.255Z,-1.78
2022-10-06T18:45:29.703Z,-1.73
2022-10-06T18:48:50.840Z,-1.80
2022-10-06T18:51:58.322Z,-1.94
2022-10-06T18:55:01.993Z,-1.87
2022-10-06T18:58:05.837Z,-1.79
2022-10-06T19:01:09.529Z,-1.84
2022-10-06T19:04:15.965Z,-1.87
2022-10-06T19:07:18.975Z,-1.88
2022-10-06T19:10:22.568Z,-1.83
2022-10-06T19:13:26.797Z,-1.81
2022-10-06T19:16:30.950Z,-1.74
2022-10-06T19:19:34.688Z,-1.68
2022-10-06T19:22:38.248Z,-1.66
2022-10-06T19:25:41.306Z,-1.61
2022-10-06T19:28:44.490Z,-1.58
2022-10-06T19:31:48.580Z,-1.57
2022-10-06T19:34:51.504Z,-1.53
2022-10-06T19:37:54.593Z,-1.69
2022-10-06T19:41:18.441Z,-1.70
2022-10-06T19:44:21.598Z,-1.67
2022-10-06T19:47:24.861Z,-1.77
2022-10-06T19:50:28.610Z,-1.92
2022-10-06T19:53:32.288Z,-2.05
2022-10-06T19:56:35.722Z,-2.00
2022-10-06T19:59:39.566Z,-2.05
2022-10-06T20:02:47.285Z,-2.05
2022-10-06T20:05:50.267Z,-2.06
2022-10-06T20:08:57.287Z,-2.11
2022-10-06T20:12:02.626Z,-2.17
2022-10-06T20:15:07.273Z,-2.18
2022-10-06T20:18:10.702Z,-2.28
2022-10-06T20:21:16.966Z,-2.32
2022-10-06T20:24:25.565Z,-2.37
2022-10-06T20:27:28.591Z,-2.45
2022-10-06T20:30:36.041Z,-2.42
2022-10-06T20:33:39.741Z,-2.41
2022-10-06T20:36:44.059Z,-2.44
2022-10-06T20:40:06.007Z,-2.50
2022-10-06T20:43:09.933Z,-2.46
2022-10-06T20:46:13.703Z,-2.41
2022-10-06T20:49:20.664Z,-2.33
2022-10-06T20:52:24.698Z,-2.27
2022-10-06T20:55:27.776Z,-2.33
2022-10-06T20:58:30.670Z,-2.31
2022-10-06T21:01:35.783Z,-2.36
2022-10-06T21:04:38.884Z,-2.38
2022-10-06T21:07:43.312Z,-2.29
2022-10-06T21:10:56.664Z,-2.33
2022-10-06T21:13:59.982Z,-2.35
2022-10-06T21:17:03.004Z,-2.26
2022-10-06T21:20:06.931Z,-2.23
2022-10-06T21:23:11.091Z,-2.08
2022-10-06T21:26:16.977Z,-2.03
2022-10-06T21:29:20.962Z,-2.04
2022-10-06T21:32:24.111Z,-2.28
2022-10-06T21:35:27.509Z,-2.51
2022-10-06T21:38:31.801Z,-2.55
2022-10-06T21:41:39.467Z,-2.50
2022-10-06T21:44:43.418Z,-2.50
2022-10-06T21:47:47.044Z,-2.48
2022-10-06T21:50:56.765Z,-2.52
2022-10-06T21:54:01.210Z,-2.65
2022-10-06T21:57:04.414Z,-2.83
2022-10-06T22:00:11.617Z,-2.78
2022-10-06T22:03:17.512Z,-2.68
2022-10-06T22:06:22.690Z,-2.60
2022-10-06T22:09:26.125Z,-2.55
2022-10-06T22:12:30.042Z,-2.56
2022-10-06T22:15:36.763Z,-2.62
2022-10-06T22:18:41.056Z,-2.65
2022-10-06T22:21:47.070Z,-2.72
2022-10-06T22:24:50.189Z,-2.73
2022-10-06T22:27:53.163Z,-2.71
2022-10-06T22:31:08.391Z,-2.69
2022-10-06T22:34:14.680Z,-2.80
2022-10-06T22:37:18.520Z,-2.85
2022-10-06T22:40:21.759Z,-2.80
2022-10-06T22:43:25.399Z,-2.74
2022-10-06T22:46:33.188Z,-2.69
2022-10-06T22:49:36.893Z,-2.55
2022-10-06T22:52:40.695Z,-2.43
2022-10-06T22:55:44.829Z,-2.31
2022-10-06T22:58:48.421Z,-2.31
2022-10-06T23:01:55.040Z,-2.35
2022-10-06T23:04:58.886Z,-2.32
2022-10-06T23:08:02.327Z,-2.36
2022-10-06T23:11:09.340Z,-2.30
2022-10-06T23:14:12.323Z,-2.27
2022-10-06T23:17:15.937Z,-2.16
2022-10-06T23:20:19.470Z,-2.06
2022-10-06T23:23:23.639Z,-2.02
2022-10-06T23:26:28.409Z,-2.10
2022-10-06T23:29:32.193Z,-2.29
2022-10-06T23:32:37.950Z,-2.20
2022-10-06T23:35:41.559Z,-2.17
2022-10-06T23:38:45.910Z,-2.23
2022-10-06T23:41:49.804Z,-2.24
2022-10-06T23:44:54.036Z,-2.22
2022-10-06T23:47:57.774Z,-2.20
2022-10-06T23:51:04.720Z,-2.19
2022-10-06T23:54:09.124Z,-2.17
2022-10-06T23:57:13.413Z,-1.96
